Terminal Aerodrome Forecast
Issued by NWS Wilmington, OH

Current Version | Previous Version | Graphics & Text | Print | Product List | Glossary On
Versions: 1 2 3 4 5 6 7 8 9 10 11 12 13 14 15 16 17 18 19 20 21
000
FTUS41 KILN 262337
TAFCMH
TAF
KCMH 262337Z 2700/2724 21008KT P6SM SCT250
     FM270300 19006KT P6SM OVC080
     FM271100 16005KT P6SM OVC050
     FM271500 17007KT P6SM VCSH OVC035
     FM271800 18008KT P6SM VCSH OVC028
     FM272200 15005KT P6SM OVC035=

USA.gov is the U.S. government's official web portal to all federal, state and local government web resources and services.